Hovedside
METAR-TAF:

METAR-TAF

Lufthavner :

Stockholm, Sverige

Bromma lufthavn

breddegrad: 59-21N, lengdegrad: 017-57E, høyde over havet: 14 m

Gjeldene værobservasjon

Denne rapporten ble laget for 16 minutter siden, klokken 22:20 UTC
Vind 4 kt fra Nord, skiftende mellom Nordvest og Nord-nordøst
Temperatur 15°C
Luftfuktighet 72%
Trykk 1013 hPa
Sikt 10 km eller mer

METAR: ESSB 242220Z AUTO 36004KT 320V030 9999 NCD 15/10 Q1013

Tid: 00:36 (22:36 UTC)

Varsel

Denne rapporten ble laget for 5 timer og 6 minutter siden, klokken 17:30 UTC
Varsel gyldig fra 24. klokken 18 UTC til 24. klokken 20 UTC
Vind 6 kt fra Øst-nordøst
Sikt 10 km eller mer
ingen skyer under 1500 m og ingen bygeskyer

TAF: ESSB 241730Z 2418/2420 07006KT CAVOK

Værobservasjoner og værvarsel for over 4000 flyplasser (METAR- og TAF-rapporter).

Tilgjengelige stasjoner er representert av de røde og gule prikkene på kartet.

Hold musepekeren over prikken for å se navnet på stasjonen.

Klikk så for å se værobservasjoner og -varsler.

For å forandre kartet kan du klikke på den grønne knappen med svart kryss for å zoome inn, på den grønne knappen med strek for å zoome ut, eller på de grønne pilene for å se tilstøtende kart.


METAR-TAF: